Time;durP1;ratioP1;P1;durP2;ratioP2;P2;SDS_P1;SDS_P2;PMS_P1;PMS_P2;Temp;Humidity;BMP_temperature;BMP_pressure;BME280_temperature;BME280_humidity;BME280_pressure;Samples;Min_cycle;Max_cycle;Signal;HPM_P1;HPM_P2
2023/11/05 00:01:57;;;;;;;1999.90;999.90;;;;;;;;;;5046200;28;20083;-88
2023/11/05 00:04:23;;;;;;;1999.90;999.90;;;;;;;;;;5060512;28;20044;-88
2023/11/05 00:06:52;;;;;;;1999.90;999.90;;;;;;;;;;5040544;28;20059;-89
2023/11/05 00:09:21;;;;;;;1999.90;999.90;;;;;;;;;;5037115;28;20123;-88
2023/11/05 00:11:48;;;;;;;1999.90;999.90;;;;;;;;;;5062030;28;20087;-87
2023/11/05 00:14:15;;;;;;;1999.90;999.90;;;;;;;;;;5061002;28;20040;-89
2023/11/05 00:16:42;;;;;;;1999.90;999.90;;;;;;;;;;5056596;28;20049;-88
2023/11/05 00:19:09;;;;;;;1999.90;999.90;;;;;;;;;;5061928;28;20490;-88
2023/11/05 00:21:36;;;;;;;1999.90;999.90;;;;;;;;;;5063579;28;20044;-90
2023/11/05 00:24:03;;;;;;;1999.90;999.90;;;;;;;;;;5062463;28;20059;-89
2023/11/05 00:26:31;;;;;;;1999.90;999.90;;;;;;;;;;5056487;28;20052;-88
2023/11/05 00:28:57;;;;;;;1999.90;999.90;;;;;;;;;;5058587;28;20513;-88
2023/11/05 00:31:24;;;;;;;1999.90;999.90;;;;;;;;;;5062214;28;20793;-87
2023/11/05 00:33:51;;;;;;;1999.90;999.90;;;;;;;;;;5044278;28;20064;-89
2023/11/05 00:36:18;;;;;;;1999.90;999.90;;;;;;;;;;5061663;28;20049;-88
2023/11/05 00:38:44;;;;;;;1999.90;999.90;;;;;;;;;;5046164;28;20044;-87
2023/11/05 00:41:11;;;;;;;1999.90;999.90;;;;;;;;;;5037989;28;20048;-87
2023/11/05 00:43:39;;;;;;;1999.90;999.90;;;;;;;;;;5041724;28;20052;-87
2023/11/05 00:46:06;;;;;;;1999.90;999.90;;;;;;;;;;5062524;28;20060;-87
2023/11/05 00:48:36;;;;;;;1999.90;999.90;;;;;;;;;;5046446;28;20053;-86
2023/11/05 00:51:03;;;;;;;1999.90;999.90;;;;;;;;;;5060913;28;20072;-87
2023/11/05 00:53:30;;;;;;;1999.90;999.90;;;;;;;;;;5060022;28;20057;-88
2023/11/05 00:55:58;;;;;;;1999.90;999.90;;;;;;;;;;5065398;28;20055;-87
2023/11/05 00:58:27;;;;;;;1999.90;999.90;;;;;;;;;;5056003;28;20063;-88
2023/11/05 01:00:55;;;;;;;1999.90;999.90;;;;;;;;;;5062447;28;20057;-88
2023/11/05 01:03:22;;;;;;;1999.90;999.90;;;;;;;;;;5057640;28;20509;-87
2023/11/05 01:05:49;;;;;;;1999.90;999.90;;;;;;;;;;5064268;28;20518;-88
2023/11/05 01:08:16;;;;;;;1999.90;999.90;;;;;;;;;;5083236;28;20116;-88
2023/11/05 01:10:42;;;;;;;1999.90;999.90;;;;;;;;;;5061270;28;20043;-88
2023/11/05 01:13:13;;;;;;;1999.90;999.90;;;;;;;;;;5055715;28;20245;-89
2023/11/05 01:15:40;;;;;;;1999.90;999.90;;;;;;;;;;5047326;28;20131;-88
2023/11/05 01:18:11;;;;;;;1999.90;999.90;;;;;;;;;;5048337;28;20060;-87
2023/11/05 01:20:38;;;;;;;1999.90;999.90;;;;;;;;;;5060125;28;20041;-88
2023/11/05 01:23:04;;;;;;;1999.90;999.90;;;;;;;;;;5029948;28;20688;-87
2023/11/05 01:25:31;;;;;;;1999.90;999.90;;;;;;;;;;5060977;28;20394;-88
2023/11/05 01:27:58;;;;;;;1999.90;999.90;;;;;;;;;;5060884;28;20053;-88
2023/11/05 01:30:25;;;;;;;1999.90;999.90;;;;;;;;;;5059941;28;20052;-88
2023/11/05 01:32:52;;;;;;;1999.90;999.90;;;;;;;;;;5040823;28;20063;-87
2023/11/05 01:35:23;;;;;;;1999.90;999.90;;;;;;;;;;5043081;28;20053;-87
2023/11/05 01:37:50;;;;;;;1999.90;999.90;;;;;;;;;;5054943;28;20434;-88
2023/11/05 01:40:17;;;;;;;1999.90;999.90;;;;;;;;;;5048263;28;20055;-86
2023/11/05 01:42:43;;;;;;;1999.90;999.90;;;;;;;;;;5057079;28;20055;-86
2023/11/05 01:45:11;;;;;;;1999.90;999.90;;;;;;;;;;5054087;28;20053;-87
2023/11/05 01:47:37;;;;;;;1999.90;999.90;;;;;;;;;;5057822;28;20057;-87
2023/11/05 01:50:05;;;;;;;1999.90;999.90;;;;;;;;;;5059181;28;20044;-88
2023/11/05 01:52:33;;;;;;;1999.90;999.90;;;;;;;;;;5060264;28;20063;-87
2023/11/05 01:55:02;;;;;;;1999.90;999.90;;;;;;;;;;5056110;28;20597;-87
2023/11/05 01:57:30;;;;;;;1999.90;999.90;;;;;;;;;;5059102;28;20045;-88
2023/11/05 01:59:56;;;;;;;1999.90;999.90;;;;;;;;;;5065445;28;20052;-89
2023/11/05 02:02:24;;;;;;;1999.90;999.90;;;;;;;;;;5065887;28;20052;-87
2023/11/05 02:04:51;;;;;;;1999.90;999.90;;;;;;;;;;5065874;28;20056;-87
2023/11/05 02:07:18;;;;;;;1999.90;999.90;;;;;;;;;;5060138;28;20045;-86
2023/11/05 02:09:46;;;;;;;1999.90;999.90;;;;;;;;;;5065032;28;20049;-87
2023/11/05 02:12:13;;;;;;;1999.90;999.90;;;;;;;;;;5045613;28;20048;-88
2023/11/05 02:14:40;;;;;;;1999.90;999.90;;;;;;;;;;5069000;28;20052;-88
2023/11/05 02:17:05;;;;;;;1999.90;999.90;;;;;;;;;;5088563;28;20062;-87
2023/11/05 02:19:32;;;;;;;1999.90;999.90;;;;;;;;;;5060797;28;20045;-85
2023/11/05 02:22:03;;;;;;;1999.90;999.90;;;;;;;;;;5079255;28;20113;-88
2023/11/05 02:24:32;;;;;;;1999.90;999.90;;;;;;;;;;5065614;28;20056;-87
2023/11/05 02:27:01;;;;;;;1999.90;999.90;;;;;;;;;;5069737;28;20049;-88
2023/11/05 02:29:27;;;;;;;1999.90;999.90;;;;;;;;;;5067262;28;20513;-87
2023/11/05 02:31:54;;;;;;;1999.90;999.90;;;;;;;;;;5069387;28;20119;-86
2023/11/05 02:34:21;;;;;;;1999.90;999.90;;;;;;;;;;5065889;28;20048;-86
2023/11/05 02:36:48;;;;;;;1999.90;999.90;;;;;;;;;;5047016;28;20045;-87
2023/11/05 02:39:16;;;;;;;1999.90;999.90;;;;;;;;;;5044480;28;20064;-88
2023/11/05 02:41:44;;;;;;;1999.90;999.90;;;;;;;;;;5063566;28;20210;-87
2023/11/05 02:44:11;;;;;;;1999.90;999.90;;;;;;;;;;5044816;28;20502;-86
2023/11/05 02:46:39;;;;;;;1999.90;999.90;;;;;;;;;;5048518;28;20048;-88
2023/11/05 02:49:08;;;;;;;1999.90;999.90;;;;;;;;;;5062570;28;20079;-87
2023/11/05 02:51:35;;;;;;;1999.90;999.90;;;;;;;;;;5061454;28;20410;-87
2023/11/05 02:54:02;;;;;;;1999.90;999.90;;;;;;;;;;5045620;28;20110;-86
2023/11/05 02:56:29;;;;;;;1999.90;999.90;;;;;;;;;;5057261;28;20045;-87
2023/11/05 02:58:57;;;;;;;1999.90;999.90;;;;;;;;;;5048726;28;20135;-88
2023/11/05 03:01:25;;;;;;;1999.90;999.90;;;;;;;;;;5060964;28;20045;-87
2023/11/05 03:03:51;;;;;;;1999.90;999.90;;;;;;;;;;5029468;28;20102;-84
2023/11/05 03:06:19;;;;;;;1999.90;999.90;;;;;;;;;;5062547;28;20464;-84
2023/11/05 03:08:46;;;;;;;1999.90;999.90;;;;;;;;;;5060788;28;20044;-83
2023/11/05 03:11:13;;;;;;;1999.90;999.90;;;;;;;;;;5054927;28;20048;-84
2023/11/05 03:13:41;;;;;;;1999.90;999.90;;;;;;;;;;5057821;28;20195;-83
2023/11/05 03:16:11;;;;;;;1999.90;999.90;;;;;;;;;;5055668;28;20554;-84
2023/11/05 03:18:39;;;;;;;1999.90;999.90;;;;;;;;;;5040373;28;20041;-84
2023/11/05 03:21:06;;;;;;;1999.90;999.90;;;;;;;;;;5060597;28;20064;-83
2023/11/05 03:23:33;;;;;;;1999.90;999.90;;;;;;;;;;5062294;28;20055;-83
2023/11/05 03:25:59;;;;;;;1999.90;999.90;;;;;;;;;;5047300;28;20109;-84
2023/11/05 03:28:26;;;;;;;1999.90;999.90;;;;;;;;;;5047474;28;20434;-84
2023/11/05 03:30:53;;;;;;;1999.90;999.90;;;;;;;;;;5062834;28;20057;-85
2023/11/05 03:33:20;;;;;;;1999.90;999.90;;;;;;;;;;5064151;28;20136;-83
2023/11/05 03:35:47;;;;;;;1999.90;999.90;;;;;;;;;;5062153;28;20040;-84
2023/11/05 03:38:15;;;;;;;1999.90;999.90;;;;;;;;;;5059471;28;20060;-84
2023/11/05 03:40:42;;;;;;;1999.90;999.90;;;;;;;;;;5058028;28;20052;-84
2023/11/05 03:43:09;;;;;;;1999.90;999.90;;;;;;;;;;5039387;28;20048;-84
2023/11/05 03:45:35;;;;;;;1999.90;999.90;;;;;;;;;;5061020;28;20064;-84
2023/11/05 03:48:02;;;;;;;1999.90;999.90;;;;;;;;;;5058556;28;20049;-83
2023/11/05 03:50:31;;;;;;;1999.90;999.90;;;;;;;;;;5054440;28;20099;-84
2023/11/05 03:52:58;;;;;;;1999.90;999.90;;;;;;;;;;5040755;28;20044;-86
2023/11/05 03:55:24;;;;;;;1999.90;999.90;;;;;;;;;;5040725;28;20056;-88
2023/11/05 03:57:51;;;;;;;1999.90;999.90;;;;;;;;;;5040791;28;20485;-86
2023/11/05 04:00:18;;;;;;;1999.90;999.90;;;;;;;;;;5024883;28;20056;-86
2023/11/05 04:02:45;;;;;;;1999.90;999.90;;;;;;;;;;5039436;28;20052;-86
2023/11/05 04:05:14;;;;;;;1999.90;999.90;;;;;;;;;;5058500;28;20052;-86
2023/11/05 04:07:43;;;;;;;1999.90;999.90;;;;;;;;;;5056762;28;20048;-86
2023/11/05 04:10:10;;;;;;;1999.90;999.90;;;;;;;;;;5041975;28;20139;-85
2023/11/05 04:12:37;;;;;;;1999.90;999.90;;;;;;;;;;5038164;28;20094;-86
2023/11/05 04:15:06;;;;;;;1999.90;999.90;;;;;;;;;;5031587;28;20049;-85
2023/11/05 04:17:34;;;;;;;1999.90;999.90;;;;;;;;;;5056971;28;20080;-85
2023/11/05 04:20:02;;;;;;;1999.90;999.90;;;;;;;;;;5038806;28;20052;-86
2023/11/05 04:22:28;;;;;;;1999.90;999.90;;;;;;;;;;5041416;28;20044;-86
2023/11/05 04:24:57;;;;;;;1999.90;999.90;;;;;;;;;;5058555;28;20144;-86
2023/11/05 04:27:24;;;;;;;1999.90;999.90;;;;;;;;;;5055283;28;20503;-84
2023/11/05 04:29:51;;;;;;;1999.90;999.90;;;;;;;;;;5024314;28;20060;-85
2023/11/05 04:32:18;;;;;;;1999.90;999.90;;;;;;;;;;5041874;28;20461;-85
2023/11/05 04:34:45;;;;;;;1999.90;999.90;;;;;;;;;;5042385;28;20490;-86
2023/11/05 04:37:12;;;;;;;1999.90;999.90;;;;;;;;;;5042590;28;20050;-86
2023/11/05 04:39:42;;;;;;;1999.90;999.90;;;;;;;;;;5056959;28;20503;-86
2023/11/05 04:42:15;;;;;;;1999.90;999.90;;;;;;;;;;5058231;28;20063;-86
2023/11/05 04:44:42;;;;;;;1999.90;999.90;;;;;;;;;;5061054;28;20052;-86
2023/11/05 04:47:09;;;;;;;1999.90;999.90;;;;;;;;;;5042335;28;20128;-86
2023/11/05 04:49:36;;;;;;;1999.90;999.90;;;;;;;;;;5039577;28;20048;-86
2023/11/05 04:52:03;;;;;;;1999.90;999.90;;;;;;;;;;5042594;28;20063;-86
2023/11/05 04:54:30;;;;;;;1999.90;999.90;;;;;;;;;;5044575;28;20052;-86
2023/11/05 04:56:59;;;;;;;1999.90;999.90;;;;;;;;;;5024358;28;20048;-87
2023/11/05 04:59:27;;;;;;;1999.90;999.90;;;;;;;;;;5024162;28;20114;-88
2023/11/05 05:01:55;;;;;;;1999.90;999.90;;;;;;;;;;5031187;28;20083;-87
2023/11/05 05:04:21;;;;;;;1999.90;999.90;;;;;;;;;;5036529;28;20143;-87
2023/11/05 05:06:50;;;;;;;1999.90;999.90;;;;;;;;;;5044947;28;20056;-88
2023/11/05 05:09:17;;;;;;;1999.90;999.90;;;;;;;;;;5060685;28;20080;-85
2023/11/05 05:11:43;;;;;;;1999.90;999.90;;;;;;;;;;5038592;28;20105;-85
2023/11/05 05:14:12;;;;;;;1999.90;999.90;;;;;;;;;;5061250;28;20342;-87
2023/11/05 05:16:40;;;;;;;1999.90;999.90;;;;;;;;;;5041977;28;20071;-85
2023/11/05 05:19:07;;;;;;;1999.90;999.90;;;;;;;;;;5043144;28;20044;-86
2023/11/05 05:21:33;;;;;;;1999.90;999.90;;;;;;;;;;5044260;28;20055;-87
2023/11/05 05:24:01;;;;;;;1999.90;999.90;;;;;;;;;;5042646;28;20520;-87
2023/11/05 05:26:29;;;;;;;1999.90;999.90;;;;;;;;;;5037971;28;20513;-88
2023/11/05 05:28:57;;;;;;;1999.90;999.90;;;;;;;;;;5061889;28;20520;-89
2023/11/05 05:31:25;;;;;;;1999.90;999.90;;;;;;;;;;5055673;28;20507;-88
2023/11/05 05:33:53;;;;;;;1999.90;999.90;;;;;;;;;;5039939;28;20429;-87
2023/11/05 05:36:20;;;;;;;1999.90;999.90;;;;;;;;;;5060150;28;20045;-87
2023/11/05 05:38:48;;;;;;;1999.90;999.90;;;;;;;;;;5061409;28;20373;-87
2023/11/05 05:41:15;;;;;;;1999.90;999.90;;;;;;;;;;5064068;28;20064;-86
2023/11/05 05:43:41;;;;;;;1999.90;999.90;;;;;;;;;;5060665;28;20601;-86
2023/11/05 05:46:09;;;;;;;1999.90;999.90;;;;;;;;;;5059297;28;20076;-86
2023/11/05 05:48:37;;;;;;;1999.90;999.90;;;;;;;;;;5058307;28;20045;-86
2023/11/05 05:51:09;;;;;;;1999.90;999.90;;;;;;;;;;5061505;28;20098;-86
2023/11/05 05:53:36;;;;;;;1999.90;999.90;;;;;;;;;;5055754;28;20056;-86
2023/11/05 05:56:02;;;;;;;1999.90;999.90;;;;;;;;;;5058102;28;20060;-86
2023/11/05 05:58:29;;;;;;;1999.90;999.90;;;;;;;;;;5063121;28;20414;-86
2023/11/05 06:00:57;;;;;;;1999.90;999.90;;;;;;;;;;5060038;28;20049;-86
2023/11/05 06:03:23;;;;;;;1999.90;999.90;;;;;;;;;;5061290;28;20056;-87
2023/11/05 06:05:50;;;;;;;1999.90;999.90;;;;;;;;;;5046451;28;20048;-86
2023/11/05 06:08:19;;;;;;;1999.90;999.90;;;;;;;;;;5040617;28;20059;-86
2023/11/05 06:10:46;;;;;;;1999.90;999.90;;;;;;;;;;5044028;28;20059;-87
2023/11/05 06:13:12;;;;;;;1999.90;999.90;;;;;;;;;;5060259;28;20059;-86
2023/11/05 06:15:40;;;;;;;1999.90;999.90;;;;;;;;;;5059097;28;20049;-87
2023/11/05 06:18:07;;;;;;;1999.90;999.90;;;;;;;;;;5026948;28;20414;-86
2023/11/05 06:20:33;;;;;;;1999.90;999.90;;;;;;;;;;5043087;28;20045;-86
2023/11/05 06:23:00;;;;;;;1999.90;999.90;;;;;;;;;;5060866;28;20127;-87
2023/11/05 06:25:28;;;;;;;1999.90;999.90;;;;;;;;;;5056578;28;20129;-88
2023/11/05 06:27:55;;;;;;;1999.90;999.90;;;;;;;;;;5044026;28;20055;-87
2023/11/05 06:30:22;;;;;;;1999.90;999.90;;;;;;;;;;5043605;28;20052;-88
2023/11/05 06:32:49;;;;;;;1999.90;999.90;;;;;;;;;;5044009;28;20053;-88
2023/11/05 06:35:16;;;;;;;1999.90;999.90;;;;;;;;;;5027738;28;20048;-88
2023/11/05 06:37:43;;;;;;;1999.90;999.90;;;;;;;;;;5060859;28;20051;-88
2023/11/05 06:40:10;;;;;;;1999.90;999.90;;;;;;;;;;5061400;28;20052;-88
2023/11/05 06:42:39;;;;;;;1999.90;999.90;;;;;;;;;;5033940;28;20053;-87
2023/11/05 06:45:08;;;;;;;1999.90;999.90;;;;;;;;;;5058546;28;20064;-87
2023/11/05 06:47:34;;;;;;;1999.90;999.90;;;;;;;;;;5060909;28;20679;-88
2023/11/05 06:50:02;;;;;;;1999.90;999.90;;;;;;;;;;5042774;28;20048;-87
2023/11/05 06:52:29;;;;;;;1999.90;999.90;;;;;;;;;;5062606;28;20389;-87
2023/11/05 06:54:56;;;;;;;1999.90;999.90;;;;;;;;;;5062008;28;20064;-88
2023/11/05 06:57:24;;;;;;;1999.90;999.90;;;;;;;;;;5044311;28;20107;-87
2023/11/05 06:59:52;;;;;;;1999.90;999.90;;;;;;;;;;5044500;28;20053;-88
2023/11/05 07:02:19;;;;;;;1999.90;999.90;;;;;;;;;;5024797;28;20063;-86
2023/11/05 07:04:46;;;;;;;1999.90;999.90;;;;;;;;;;5060112;28;20056;-88
2023/11/05 07:07:13;;;;;;;1999.90;999.90;;;;;;;;;;5058877;28;20063;-87
2023/11/05 07:09:40;;;;;;;1999.90;999.90;;;;;;;;;;5063938;28;20410;-87
2023/11/05 07:12:08;;;;;;;1999.90;999.90;;;;;;;;;;5061579;28;20074;-87
2023/11/05 07:14:34;;;;;;;1999.90;999.90;;;;;;;;;;5063055;28;20053;-86
2023/11/05 07:17:04;;;;;;;1999.90;999.90;;;;;;;;;;5040711;28;20052;-88
2023/11/05 07:19:31;;;;;;;1999.90;999.90;;;;;;;;;;5061321;28;20060;-87
2023/11/05 07:21:58;;;;;;;1999.90;999.90;;;;;;;;;;5056186;28;20098;-87
2023/11/05 07:24:25;;;;;;;1999.90;999.90;;;;;;;;;;5053252;28;20140;-88
2023/11/05 07:26:52;;;;;;;1999.90;999.90;;;;;;;;;;5060004;28;20409;-87
2023/11/05 07:29:19;;;;;;;1999.90;999.90;;;;;;;;;;5058444;28;20049;-90
2023/11/05 07:31:45;;;;;;;1999.90;999.90;;;;;;;;;;5060741;28;20044;-88
2023/11/05 07:34:13;;;;;;;1999.90;999.90;;;;;;;;;;5043804;28;20053;-89
2023/11/05 07:36:40;;;;;;;1999.90;999.90;;;;;;;;;;5044899;28;20048;-88
2023/11/05 07:39:09;;;;;;;1999.90;999.90;;;;;;;;;;5063074;28;20051;-87
2023/11/05 07:41:37;;;;;;;1999.90;999.90;;;;;;;;;;5064472;28;20052;-88
2023/11/05 07:44:04;;;;;;;1999.90;999.90;;;;;;;;;;5055813;28;20610;-89
2023/11/05 07:46:32;;;;;;;1999.90;999.90;;;;;;;;;;5054939;28;20053;-89
2023/11/05 07:48:59;;;;;;;1999.90;999.90;;;;;;;;;;5057743;28;20049;-86
2023/11/05 07:51:27;;;;;;;1999.90;999.90;;;;;;;;;;5065557;28;20040;-88
2023/11/05 07:53:54;;;;;;;1999.90;999.90;;;;;;;;;;5041940;28;20055;-88
2023/11/05 07:56:21;;;;;;;1999.90;999.90;;;;;;;;;;5060879;28;20048;-87
2023/11/05 07:58:50;;;;;;;1999.90;999.90;;;;;;;;;;5056659;28;20040;-87
2023/11/05 08:01:18;;;;;;;1999.90;999.90;;;;;;;;;;5061004;28;20057;-86
2023/11/05 08:03:45;;;;;;;1999.90;999.90;;;;;;;;;;5060502;28;20045;-89
2023/11/05 08:06:12;;;;;;;1999.90;999.90;;;;;;;;;;5056542;28;20089;-88
2023/11/05 08:08:41;;;;;;;1999.90;999.90;;;;;;;;;;5060191;28;20053;-88
2023/11/05 08:11:08;;;;;;;1999.90;999.90;;;;;;;;;;5058807;28;20058;-87
2023/11/05 08:13:35;;;;;;;1999.90;999.90;;;;;;;;;;5039720;28;20521;-89
2023/11/05 08:16:03;;;;;;;1999.90;999.90;;;;;;;;;;5060786;28;20155;-87
2023/11/05 08:18:30;;;;;;;1999.90;999.90;;;;;;;;;;5038330;28;20471;-91
2023/11/05 08:20:57;;;;;;;1999.90;999.90;;;;;;;;;;5042251;28;20060;-85
2023/11/05 08:23:25;;;;;;;1999.90;999.90;;;;;;;;;;5057643;28;20052;-87
2023/11/05 08:25:53;;;;;;;1999.90;999.90;;;;;;;;;;5025439;28;20068;-90
2023/11/05 08:28:20;;;;;;;1999.90;999.90;;;;;;;;;;5023971;28;20045;-87
2023/11/05 08:30:47;;;;;;;1999.90;999.90;;;;;;;;;;5040939;28;20048;-86
2023/11/05 08:33:15;;;;;;;1999.90;999.90;;;;;;;;;;5041424;28;20080;-84
2023/11/05 08:35:42;;;;;;;1999.90;999.90;;;;;;;;;;5038493;28;20056;-84
2023/11/05 08:38:10;;;;;;;1999.90;999.90;;;;;;;;;;5037890;28;20122;-85
2023/11/05 08:40:37;;;;;;;1999.90;999.90;;;;;;;;;;5039452;28;20091;-85
2023/11/05 08:43:05;;;;;;;1999.90;999.90;;;;;;;;;;5041979;28;20071;-85
2023/11/05 08:45:32;;;;;;;1999.90;999.90;;;;;;;;;;5024733;28;20045;-86
2023/11/05 08:47:58;;;;;;;1999.90;999.90;;;;;;;;;;5041178;28;20454;-84
2023/11/05 08:50:25;;;;;;;1999.90;999.90;;;;;;;;;;5057874;28;20040;-85
2023/11/05 08:52:53;;;;;;;1999.90;999.90;;;;;;;;;;5054037;28;20052;-86
2023/11/05 08:55:28;;;;;;;1999.90;999.90;;;;;;;;;;5058555;28;20060;-88
2023/11/05 08:57:55;;;;;;;1999.90;999.90;;;;;;;;;;5041443;28;20053;-86
2023/11/05 09:00:24;;;;;;;1999.90;999.90;;;;;;;;;;5059223;28;20139;-87
2023/11/05 09:02:51;;;;;;;1999.90;999.90;;;;;;;;;;5039125;28;20338;-87
2023/11/05 09:05:22;;;;;;;1999.90;999.90;;;;;;;;;;5057162;28;20068;-87
2023/11/05 09:07:49;;;;;;;1999.90;999.90;;;;;;;;;;5060861;28;20061;-89
2023/11/05 09:10:16;;;;;;;1999.90;999.90;;;;;;;;;;5044486;28;20079;-86
2023/11/05 09:12:43;;;;;;;1999.90;999.90;;;;;;;;;;5062118;28;20249;-88
2023/11/05 09:15:10;;;;;;;1999.90;999.90;;;;;;;;;;5062806;28;20056;-88
2023/11/05 09:17:40;;;;;;;1999.90;999.90;;;;;;;;;;5048931;28;20410;-89
2023/11/05 09:27:29;;;;;;;;;;;;;;;;;;;;;
2023/11/05 09:33:46;;;;;;;1999.90;999.90;;;;;;;;;;5006958;28;20057;-87
2023/11/05 09:36:44;;;;;;;1999.90;999.90;;;;;;;;;;5029952;28;20076;-89
2023/11/05 09:48:21;;;;;;;1999.90;999.90;;;;;;;;;;5028023;28;20086;-88
2023/11/05 09:51:02;;;;;;;1999.90;999.90;;;;;;;;;;5028713;28;20049;-87
2023/11/05 10:00:25;;;;;;;1999.90;999.90;;;;;;;;;;5057841;28;20103;-85
2023/11/05 10:09:22;;;;;;;1999.90;999.90;;;;;;;;;;5065918;28;20057;-87
2023/11/05 10:12:08;;;;;;;1999.90;999.90;;;;;;;;;;5060214;28;20136;-85
2023/11/05 10:17:36;;;;;;;1999.90;999.90;;;;;;;;;;5061174;28;20084;-87
2023/11/05 10:20:02;;;;;;;1999.90;999.90;;;;;;;;;;5063873;28;20049;-88
2023/11/05 10:22:29;;;;;;;1999.90;999.90;;;;;;;;;;5059425;28;20049;-88
2023/11/05 10:24:56;;;;;;;1999.90;999.90;;;;;;;;;;5060704;28;20083;-89
2023/11/05 10:27:29;;;;;;;1999.90;999.90;;;;;;;;;;5065836;28;20056;-91
2023/11/05 10:29:57;;;;;;;1999.90;999.90;;;;;;;;;;5067868;28;20055;-87
2023/11/05 10:32:25;;;;;;;1999.90;999.90;;;;;;;;;;5061719;28;20048;-89
2023/11/05 10:34:52;;;;;;;1999.90;999.90;;;;;;;;;;5064501;28;20052;-90
2023/11/05 10:37:18;;;;;;;1999.90;999.90;;;;;;;;;;5072015;28;20605;-88
2023/11/05 10:39:47;;;;;;;1999.90;999.90;;;;;;;;;;5063021;28;20059;-90
2023/11/05 10:42:16;;;;;;;1999.90;999.90;;;;;;;;;;5049242;28;20414;-90
2023/11/05 10:44:45;;;;;;;1999.90;999.90;;;;;;;;;;5064268;28;20064;-89
2023/11/05 10:47:14;;;;;;;1999.90;999.90;;;;;;;;;;5065678;28;20238;-90
2023/11/05 10:49:41;;;;;;;1999.90;999.90;;;;;;;;;;5062332;28;20131;-88
2023/11/05 10:52:09;;;;;;;1999.90;999.90;;;;;;;;;;5053791;28;20052;-88
2023/11/05 10:54:37;;;;;;;1999.90;999.90;;;;;;;;;;5061309;28;20056;-89
2023/11/05 10:57:41;;;;;;;1999.90;999.90;;;;;;;;;;5047822;28;20052;-93
2023/11/05 11:00:11;;;;;;;1999.90;999.90;;;;;;;;;;5066724;28;20080;-89
2023/11/05 11:02:43;;;;;;;1999.90;999.90;;;;;;;;;;5061111;28;20102;-86
2023/11/05 11:05:11;;;;;;;1999.90;999.90;;;;;;;;;;5041359;28;20491;-88
2023/11/05 11:07:40;;;;;;;1999.90;999.90;;;;;;;;;;5063404;28;20052;-89
2023/11/05 11:10:07;;;;;;;1999.90;999.90;;;;;;;;;;5045942;28;20353;-90
2023/11/05 11:12:35;;;;;;;1999.90;999.90;;;;;;;;;;5056416;28;20062;-86
2023/11/05 11:15:06;;;;;;;1999.90;999.90;;;;;;;;;;5042940;28;20369;-89
2023/11/05 11:17:37;;;;;;;1999.90;999.90;;;;;;;;;;5063479;28;20505;-88
2023/11/05 11:20:15;;;;;;;1999.90;999.90;;;;;;;;;;5012542;28;20048;-90
2023/11/05 11:22:43;;;;;;;1999.90;999.90;;;;;;;;;;5064743;28;20515;-89
2023/11/05 11:25:12;;;;;;;1999.90;999.90;;;;;;;;;;5065854;28;20057;-89
2023/11/05 11:27:42;;;;;;;1999.90;999.90;;;;;;;;;;5041106;28;20049;-88
2023/11/05 11:30:10;;;;;;;1999.90;999.90;;;;;;;;;;5042727;28;20049;-88
2023/11/05 11:32:37;;;;;;;1999.90;999.90;;;;;;;;;;5065321;28;20541;-87
2023/11/05 11:35:11;;;;;;;1999.90;999.90;;;;;;;;;;5056894;28;20520;-86
2023/11/05 11:37:38;;;;;;;1999.90;999.90;;;;;;;;;;5062507;28;20079;-89
2023/11/05 11:40:14;;;;;;;1999.90;999.90;;;;;;;;;;5056699;28;20041;-89
2023/11/05 11:42:41;;;;;;;1999.90;999.90;;;;;;;;;;5081214;28;20058;-89
2023/11/05 11:45:09;;;;;;;1999.90;999.90;;;;;;;;;;5076867;28;20079;-91
2023/11/05 11:47:36;;;;;;;1999.90;999.90;;;;;;;;;;5067886;28;20116;-90
2023/11/05 11:50:06;;;;;;;1999.90;999.90;;;;;;;;;;5068059;28;20044;-92
2023/11/05 11:52:47;;;;;;;1999.90;999.90;;;;;;;;;;5048816;28;20121;-88
2023/11/05 11:55:15;;;;;;;1999.90;999.90;;;;;;;;;;5061517;28;20064;-91
2023/11/05 11:57:43;;;;;;;1999.90;999.90;;;;;;;;;;5055924;28;20057;-92
2023/11/05 12:00:11;;;;;;;1999.90;999.90;;;;;;;;;;5057334;28;20056;-91
2023/11/05 12:02:37;;;;;;;1999.90;999.90;;;;;;;;;;5067453;28;20052;-89
2023/11/05 12:05:06;;;;;;;1999.90;999.90;;;;;;;;;;5046806;28;20059;-91
2023/11/05 12:07:46;;;;;;;1999.90;999.90;;;;;;;;;;5062256;28;20055;-91
2023/11/05 12:10:14;;;;;;;1999.90;999.90;;;;;;;;;;5065666;28;20131;-90
2023/11/05 12:12:42;;;;;;;1999.90;999.90;;;;;;;;;;5054476;28;20499;-89
2023/11/05 12:15:12;;;;;;;1999.90;999.90;;;;;;;;;;5061200;28;20057;-88
2023/11/05 12:17:40;;;;;;;1999.90;999.90;;;;;;;;;;5062870;28;20059;-88
2023/11/05 12:20:08;;;;;;;1999.90;999.90;;;;;;;;;;5027238;28;20040;-88
2023/11/05 12:22:37;;;;;;;1999.90;999.90;;;;;;;;;;5049372;28;20099;-91
2023/11/05 12:25:10;;;;;;;1999.90;999.90;;;;;;;;;;5065493;28;20048;-88
2023/11/05 12:27:37;;;;;;;1999.90;999.90;;;;;;;;;;5047579;28;20049;-88
2023/11/05 12:30:06;;;;;;;1999.90;999.90;;;;;;;;;;5068087;28;20051;-88
2023/11/05 12:32:34;;;;;;;1999.90;999.90;;;;;;;;;;5067053;28;20040;-86
2023/11/05 12:35:02;;;;;;;1999.90;999.90;;;;;;;;;;5059365;28;20044;-86
2023/11/05 12:37:29;;;;;;;1999.90;999.90;;;;;;;;;;5057729;28;20357;-87
2023/11/05 12:39:56;;;;;;;1999.90;999.90;;;;;;;;;;5046155;28;20048;-89
2023/11/05 12:42:27;;;;;;;1999.90;999.90;;;;;;;;;;5047356;28;20526;-86
2023/11/05 12:44:54;;;;;;;1999.90;999.90;;;;;;;;;;5065366;28;20085;-90
2023/11/05 12:47:23;;;;;;;1999.90;999.90;;;;;;;;;;5050144;28;20049;-90
2023/11/05 12:49:52;;;;;;;1999.90;999.90;;;;;;;;;;5043856;28;20045;-89
2023/11/05 12:52:20;;;;;;;1999.90;999.90;;;;;;;;;;5066567;28;20048;-92
2023/11/05 12:54:46;;;;;;;1999.90;999.90;;;;;;;;;;5060428;28;20156;-86
2023/11/05 12:57:13;;;;;;;1999.90;999.90;;;;;;;;;;5062013;28;20079;-88
2023/11/05 12:59:42;;;;;;;1999.90;999.90;;;;;;;;;;5044067;28;20052;-84
2023/11/05 13:02:11;;;;;;;1999.90;999.90;;;;;;;;;;5057820;28;20049;-88
2023/11/05 13:04:38;;;;;;;1999.90;999.90;;;;;;;;;;5050850;28;20040;-87
2023/11/05 13:07:06;;;;;;;1999.90;999.90;;;;;;;;;;5047962;28;20052;-87
2023/11/05 13:09:33;;;;;;;1999.90;999.90;;;;;;;;;;5062500;28;20044;-88
2023/11/05 13:12:00;;;;;;;1999.90;999.90;;;;;;;;;;5046180;28;20056;-88
2023/11/05 13:14:27;;;;;;;1999.90;999.90;;;;;;;;;;5066948;28;20051;-89
2023/11/05 13:16:57;;;;;;;1999.90;999.90;;;;;;;;;;5061641;28;20056;-87
2023/11/05 13:19:24;;;;;;;1999.90;999.90;;;;;;;;;;5059153;28;20653;-86
2023/11/05 13:21:51;;;;;;;1999.90;999.90;;;;;;;;;;5062257;28;20053;-89
2023/11/05 13:24:18;;;;;;;1999.90;999.90;;;;;;;;;;5059751;28;20048;-87
2023/11/05 13:26:46;;;;;;;1999.90;999.90;;;;;;;;;;5045530;28;20049;-92
2023/11/05 13:29:13;;;;;;;1999.90;999.90;;;;;;;;;;5065171;28;20059;-89
2023/11/05 13:31:39;;;;;;;1999.90;999.90;;;;;;;;;;5044349;28;20056;-87
2023/11/05 13:34:09;;;;;;;1999.90;999.90;;;;;;;;;;5048699;28;20081;-88
2023/11/05 13:36:37;;;;;;;1999.90;999.90;;;;;;;;;;5066356;28;20528;-87
2023/11/05 13:39:04;;;;;;;1999.90;999.90;;;;;;;;;;5037484;28;20056;-88
2023/11/05 13:41:31;;;;;;;1999.90;999.90;;;;;;;;;;5047817;28;20044;-89
2023/11/05 13:44:05;;;;;;;1999.90;999.90;;;;;;;;;;5067507;28;20053;-88
2023/11/05 13:46:31;;;;;;;1999.90;999.90;;;;;;;;;;5047067;28;20490;-89
2023/11/05 13:48:59;;;;;;;1999.90;999.90;;;;;;;;;;5062099;28;20079;-93
2023/11/05 13:51:28;;;;;;;1999.90;999.90;;;;;;;;;;5030404;28;20544;-89
2023/11/05 13:53:57;;;;;;;1999.90;999.90;;;;;;;;;;5060510;28;20060;-90
2023/11/05 13:56:25;;;;;;;1999.90;999.90;;;;;;;;;;5063777;28;20048;-90
2023/11/05 13:58:53;;;;;;;1999.90;999.90;;;;;;;;;;5061212;28;20057;-91
2023/11/05 14:01:22;;;;;;;1999.90;999.90;;;;;;;;;;5065606;28;20057;-92
2023/11/05 14:03:48;;;;;;;1999.90;999.90;;;;;;;;;;5049304;28;20168;-93
2023/11/05 14:06:15;;;;;;;1999.90;999.90;;;;;;;;;;5069774;28;20064;-91
2023/11/05 14:08:44;;;;;;;1999.90;999.90;;;;;;;;;;5047734;28;20090;-92
2023/11/05 14:11:10;;;;;;;1999.90;999.90;;;;;;;;;;5064659;28;20041;-92
2023/11/05 14:13:38;;;;;;;1999.90;999.90;;;;;;;;;;5065477;28;20055;-90
2023/11/05 14:16:05;;;;;;;1999.90;999.90;;;;;;;;;;5045969;28;20329;-90
2023/11/05 14:18:32;;;;;;;1999.90;999.90;;;;;;;;;;5047860;28;20048;-88
2023/11/05 14:21:00;;;;;;;1999.90;999.90;;;;;;;;;;5081591;28;20077;-91
2023/11/05 14:23:26;;;;;;;1999.90;999.90;;;;;;;;;;5079910;28;20048;-90